Time;durP1;ratioP1;P1;durP2;ratioP2;P2;SDS_P1;SDS_P2;PMS_P1;PMS_P2;Temp;Humidity;BMP_temperature;BMP_pressure;BME280_temperature;BME280_humidity;BME280_pressure;Samples;Min_cycle;Max_cycle;Signal;HPM_P1;HPM_P2
2023/08/15 00:01:19;;;;;;;14.82;5.97;;;;;;;25.01;68.03;100673.59;4972048;28;20121;-83
2023/08/15 00:03:47;;;;;;;11.68;5.80;;;;;;;25.03;68.08;100676.94;4971741;28;20026;-83
2023/08/15 00:06:13;;;;;;;15.80;7.20;;;;;;;25.03;68.01;100701.72;4971424;28;20031;-83
2023/08/15 00:08:39;;;;;;;25.52;7.70;;;;;;;24.95;68.74;100719.34;4971496;28;20487;-83
2023/08/15 00:11:04;;;;;;;20.98;7.63;;;;;;;25.13;68.56;100776.44;4971390;28;20026;-82
2023/08/15 00:13:30;;;;;;;9.45;6.60;;;;;;;25.14;68.68;100822.16;4971315;28;20479;-85
2023/08/15 00:15:55;;;;;;;11.30;6.57;;;;;;;25.18;68.45;100857.31;4971135;28;20026;-84
2023/08/15 00:18:21;;;;;;;15.30;6.97;;;;;;;25.14;68.91;100878.06;4971239;28;20027;-84
2023/08/15 00:20:48;;;;;;;17.35;7.47;;;;;;;25.16;68.93;100870.47;4971105;28;20471;-84
2023/08/15 00:23:13;;;;;;;14.60;7.00;;;;;;;25.27;68.70;100883.56;4971508;28;20031;-83
2023/08/15 00:25:39;;;;;;;12.20;7.80;;;;;;;25.32;68.44;100874.63;4971256;28;20410;-83
2023/08/15 00:28:05;;;;;;;13.70;7.28;;;;;;;25.20;68.88;100855.19;4970839;28;20019;-84
2023/08/15 00:30:32;;;;;;;13.52;6.85;;;;;;;25.32;68.55;100874.63;4971175;28;20038;-84
2023/08/15 00:32:58;;;;;;;18.30;7.65;;;;;;;25.29;68.89;100883.34;4970865;28;20069;-85
2023/08/15 00:35:23;;;;;;;20.02;6.93;;;;;;;25.31;69.01;100870.22;4971044;28;20467;-83
2023/08/15 00:37:48;;;;;;;13.85;7.45;;;;;;;25.30;69.03;100849.25;4970807;28;20506;-85
2023/08/15 00:40:14;;;;;;;16.65;7.10;;;;;;;25.31;68.92;100846.28;4970974;28;20074;-85
2023/08/15 00:42:39;;;;;;;14.02;7.47;;;;;;;25.28;69.63;100843.97;4970962;28;20478;-84
2023/08/15 00:45:06;;;;;;;15.45;6.97;;;;;;;25.32;69.45;100847.97;4970796;28;20037;-83
2023/08/15 00:47:31;;;;;;;14.30;7.45;;;;;;;25.38;69.38;100840.75;4970759;28;20483;-84
2023/08/15 00:49:58;;;;;;;10.25;7.15;;;;;;;25.30;69.74;100833.56;4970247;28;20093;-84
2023/08/15 00:52:23;;;;;;;14.98;7.68;;;;;;;25.39;69.64;100848.78;4970894;28;20054;-85
2023/08/15 00:54:50;;;;;;;9.38;6.15;;;;;;;25.38;69.67;100843.53;4970742;28;20957;-85
2023/08/15 00:57:16;;;;;;;16.63;6.97;;;;;;;25.35;69.76;100833.75;4970691;28;20491;-83
2023/08/15 00:59:44;;;;;;;14.73;7.43;;;;;;;25.37;69.94;100850.94;4970494;28;20089;-85
2023/08/15 01:02:10;;;;;;;16.88;7.60;;;;;;;25.36;70.07;100851.13;4970489;28;20031;-83
2023/08/15 01:04:38;;;;;;;16.08;7.28;;;;;;;25.26;70.13;100831.44;4970797;28;20035;-85
2023/08/15 01:07:03;;;;;;;13.95;6.82;;;;;;;25.38;70.38;100841.59;4970499;28;20055;-85
2023/08/15 01:09:29;;;;;;;16.30;7.13;;;;;;;25.36;70.25;100840.13;4970577;28;20065;-85
2023/08/15 01:12:08;;;;;;;17.48;8.45;;;;;;;25.32;70.55;100825.06;4970390;28;20027;-85
2023/08/15 01:14:41;;;;;;;15.50;6.78;;;;;;;25.22;71.43;100841.22;4970565;28;20039;-85
2023/08/15 01:17:12;;;;;;;23.05;8.15;;;;;;;25.21;71.70;100856.03;4970720;28;20038;-83
2023/08/15 01:19:45;;;;;;;13.50;6.45;;;;;;;25.17;71.47;100829.97;4970567;28;20042;-84
2023/08/15 01:22:27;;;;;;;17.52;6.82;;;;;;;25.30;71.12;100835.47;4970293;28;20534;-83
2023/08/15 01:24:53;;;;;;;26.38;7.22;;;;;;;25.24;71.37;100814.31;4970419;28;20051;-84
2023/08/15 01:27:18;;;;;;;24.63;7.07;;;;;;;25.30;71.13;100803.28;4970505;28;20078;-85
2023/08/15 01:29:44;;;;;;;13.50;6.55;;;;;;;25.26;71.36;100798.41;4970271;28;20026;-83
2023/08/15 01:32:37;;;;;;;22.33;7.25;;;;;;;25.22;71.89;100791.66;4970629;28;20114;-83
2023/08/15 01:35:13;;;;;;;15.68;7.20;;;;;;;25.30;71.40;100777.66;4971788;28;20081;-84
2023/08/15 01:37:43;;;;;;;25.25;7.70;;;;;;;25.25;71.67;100771.97;4982693;28;20034;-83
2023/08/15 01:40:14;;;;;;;14.27;6.47;;;;;;;25.32;71.50;100765.34;4970599;28;20027;-84
2023/08/15 01:42:40;;;;;;;15.05;6.85;;;;;;;25.17;72.10;100758.41;4970923;28;20027;-83
2023/08/15 01:45:08;;;;;;;27.73;8.68;;;;;;;25.24;71.96;100784.03;4970143;28;20026;-83
2023/08/15 01:47:33;;;;;;;18.77;6.82;;;;;;;25.09;72.21;100766.91;4970188;28;20027;-84
2023/08/15 01:49:59;;;;;;;14.40;7.72;;;;;;;25.16;71.75;100787.03;4970183;28;20589;-84
2023/08/15 01:52:24;;;;;;;16.27;8.35;;;;;;;25.13;72.23;100798.47;4970331;28;20031;-84
2023/08/15 01:54:50;;;;;;;25.13;7.95;;;;;;;25.07;72.63;100811.19;4970443;28;20041;-83
2023/08/15 01:57:15;;;;;;;20.52;8.15;;;;;;;25.15;71.87;100813.69;4970348;28;20031;-83
2023/08/15 01:59:43;;;;;;;23.15;7.72;;;;;;;25.15;71.76;100802.69;4970577;28;20114;-83
2023/08/15 02:02:09;;;;;;;14.25;7.28;;;;;;;25.21;71.53;100807.31;4973757;28;20411;-83
2023/08/15 02:04:35;;;;;;;15.32;8.18;;;;;;;25.18;71.79;100806.91;4974235;28;20030;-82
2023/08/15 02:07:00;;;;;;;18.30;7.68;;;;;;;25.20;71.18;100813.03;4973919;28;20030;-84
2023/08/15 02:09:26;;;;;;;18.73;7.43;;;;;;;25.17;71.81;100810.72;4976731;28;20078;-82
2023/08/15 02:11:52;;;;;;;13.50;8.20;;;;;;;25.12;71.42;100810.53;4976409;28;20038;-83
2023/08/15 02:14:18;;;;;;;15.95;7.32;;;;;;;25.20;71.43;100818.53;4976420;28;20117;-83
2023/08/15 02:16:43;;;;;;;15.85;6.00;;;;;;;25.14;71.55;100811.16;4988058;28;20026;-81
2023/08/15 02:19:09;;;;;;;10.85;6.32;;;;;;;25.08;71.35;100796.34;4984689;28;20023;-82
2023/08/15 02:21:34;;;;;;;16.27;7.82;;;;;;;25.08;71.74;100793.59;4978560;28;20072;-82
2023/08/15 02:24:00;;;;;;;17.83;6.82;;;;;;;25.07;71.39;100782.81;4973581;28;20768;-82
2023/08/15 02:26:25;;;;;;;24.65;7.40;;;;;;;25.05;71.35;100779.41;4973946;28;20066;-83
2023/08/15 02:28:50;;;;;;;13.55;6.63;;;;;;;25.08;71.48;100784.47;4973541;28;20113;-83
2023/08/15 02:31:16;;;;;;;18.27;7.47;;;;;;;25.07;71.56;100793.81;4973218;28;20513;-83
2023/08/15 02:33:41;;;;;;;20.48;6.93;;;;;;;25.06;71.69;100781.09;4973337;28;20779;-83
2023/08/15 02:36:07;;;;;;;91.70;14.40;;;;;;;24.98;71.89;100762.94;4973020;28;20035;-84
2023/08/15 02:38:33;;;;;;;24.75;7.32;;;;;;;24.98;72.09;100773.09;4972947;28;20034;-83
2023/08/15 02:40:59;;;;;;;23.77;8.85;;;;;;;24.87;72.27;100756.16;4972980;28;20027;-84
2023/08/15 02:43:24;;;;;;;15.07;7.63;;;;;;;24.99;72.08;100755.50;4973054;28;20119;-83
2023/08/15 02:45:50;;;;;;;21.85;7.38;;;;;;;25.06;71.62;100767.34;4972974;28;20087;-83
2023/08/15 02:48:15;;;;;;;13.77;7.57;;;;;;;24.98;71.92;100770.34;4972748;28;20030;-83
2023/08/15 02:50:42;;;;;;;16.55;7.75;;;;;;;25.02;71.52;100760.56;4972884;28;20030;-83
2023/08/15 02:53:07;;;;;;;13.93;7.05;;;;;;;25.03;70.83;100774.13;4973009;28;20031;-83
2023/08/15 02:55:33;;;;;;;17.80;7.40;;;;;;;25.04;70.83;100775.84;4973060;28;20435;-83
2023/08/15 02:57:58;;;;;;;15.18;6.78;;;;;;;25.12;70.75;100786.59;4972635;28;20475;-85
2023/08/15 03:00:24;;;;;;;16.80;7.57;;;;;;;25.14;70.96;100784.47;4976906;28;20459;-86
2023/08/15 03:02:49;;;;;;;17.65;6.80;;;;;;;25.01;71.14;100761.66;4972419;28;20498;-83
2023/08/15 03:05:15;;;;;;;19.52;7.47;;;;;;;25.11;70.86;100778.53;4972527;28;20030;-83
2023/08/15 03:07:40;;;;;;;36.42;7.10;;;;;;;25.07;71.08;100749.78;4972620;28;20764;-84
2023/08/15 03:10:06;;;;;;;14.73;7.28;;;;;;;25.03;71.56;100730.09;4971352;28;20467;-86
2023/08/15 03:12:31;;;;;;;23.77;7.88;;;;;;;25.09;71.40;100742.13;4971994;28;20454;-83
2023/08/15 03:15:00;;;;;;;17.27;7.22;;;;;;;25.12;71.11;100752.72;4972593;28;20082;-92
2023/08/15 03:17:26;;;;;;;12.60;7.13;;;;;;;25.09;71.04;100747.66;4973150;28;20443;-92
2023/08/15 03:19:53;;;;;;;16.27;7.78;;;;;;;25.05;70.45;100724.34;4972198;28;20027;-93
2023/08/15 03:22:19;;;;;;;31.80;12.90;;;;;;;25.11;70.45;100731.75;4978185;28;20031;-94
2023/08/15 03:24:44;;;;;;;19.50;8.90;;;;;;;25.12;69.50;100730.69;4972539;28;20509;-92
2023/08/15 03:27:09;;;;;;;36.58;8.75;;;;;;;25.17;69.38;100722.63;4999387;28;20113;-93
2023/08/15 03:29:35;;;;;;;18.00;7.43;;;;;;;25.19;69.58;100743.38;4981970;28;20035;-85
2023/08/15 03:32:00;;;;;;;12.50;6.30;;;;;;;25.27;69.24;100753.31;4990633;28;20050;-86
2023/08/15 03:34:26;;;;;;;15.85;7.32;;;;;;;25.19;68.84;100731.53;4973575;28;20026;-87
2023/08/15 03:36:51;;;;;;;18.60;7.78;;;;;;;25.24;69.14;100746.31;4972753;28;20471;-86
2023/08/15 03:39:17;;;;;;;21.45;7.55;;;;;;;25.25;68.74;100741.66;4972789;28;20113;-88
2023/08/15 03:41:42;;;;;;;13.30;7.22;;;;;;;25.22;67.67;100731.09;4973287;28;20063;-87
2023/08/15 03:44:08;;;;;;;22.27;7.63;;;;;;;25.24;67.50;100745.47;4973061;28;20089;-87
2023/08/15 03:46:33;;;;;;;14.40;8.25;;;;;;;25.32;67.11;100775.50;4972433;28;20407;-87
2023/08/15 03:48:58;;;;;;;17.77;6.47;;;;;;;25.38;66.58;100785.69;4972138;28;20086;-88
2023/08/15 03:51:24;;;;;;;15.50;7.57;;;;;;;25.39;66.10;100776.34;4972171;28;20105;-87
2023/08/15 03:53:49;;;;;;;21.23;7.75;;;;;;;25.53;65.96;100794.56;4971388;28;20605;-87
2023/08/15 03:56:15;;;;;;;16.70;7.05;;;;;;;25.56;66.54;100794.13;4970486;28;20037;-87
2023/08/15 03:58:40;;;;;;;23.67;9.75;;;;;;;25.57;66.46;100789.44;4971189;28;20031;-89
2023/08/15 04:01:05;;;;;;;17.65;6.82;;;;;;;25.64;65.84;100776.47;4970877;28;20541;-87
2023/08/15 04:03:31;;;;;;;18.70;7.78;;;;;;;25.67;65.36;100759.50;4971968;28;20034;-87
2023/08/15 04:05:56;;;;;;;14.18;6.97;;;;;;;25.68;65.11;100731.75;4970503;28;20475;-87
2023/08/15 04:08:22;;;;;;;22.83;6.65;;;;;;;25.75;64.46;100721.53;4972298;28;20428;-89
2023/08/15 04:10:47;;;;;;;19.08;7.70;;;;;;;25.77;63.55;100715.81;4972023;28;21201;-88
2023/08/15 04:13:13;;;;;;;12.90;7.55;;;;;;;25.75;63.27;100727.03;4972374;28;20486;-87
2023/08/15 04:15:39;;;;;;;10.63;7.43;;;;;;;25.77;63.04;100713.91;4972900;28;20026;-88
2023/08/15 04:18:06;;;;;;;17.73;7.13;;;;;;;25.80;63.35;100741.00;4972051;28;20038;-87
2023/08/15 04:20:34;;;;;;;11.10;6.65;;;;;;;25.78;62.65;100748.63;4971880;28;20607;-88
2023/08/15 04:23:00;;;;;;;30.73;8.00;;;;;;;25.78;62.75;100759.66;4969710;28;20031;-88
2023/08/15 04:25:25;;;;;;;19.58;7.57;;;;;;;25.80;62.74;100774.06;4972187;28;20030;-89
2023/08/15 04:27:51;;;;;;;14.40;6.60;;;;;;;25.71;62.71;100758.00;4970881;28;20034;-88
2023/08/15 04:30:18;;;;;;;26.77;6.97;;;;;;;25.79;62.58;100772.38;4973551;28;20109;-87
2023/08/15 04:32:46;;;;;;;19.83;6.13;;;;;;;25.74;62.49;100769.44;4971787;28;20038;-88
2023/08/15 04:35:11;;;;;;;22.48;7.20;;;;;;;25.79;62.65;100783.41;4971612;28;20143;-87
2023/08/15 04:37:37;;;;;;;27.38;8.13;;;;;;;25.93;62.16;100793.28;4971985;28;20027;-88
2023/08/15 04:40:02;;;;;;;19.83;7.40;;;;;;;26.08;61.36;100812.28;4971677;28;20410;-90
2023/08/15 04:42:28;;;;;;;19.88;7.38;;;;;;;26.04;61.10;100833.09;4986442;28;20033;-88
2023/08/15 04:44:53;;;;;;;23.40;7.78;;;;;;;26.09;61.25;100829.66;4971607;28;20549;-88
2023/08/15 04:47:19;;;;;;;23.77;8.95;;;;;;;26.22;60.77;100846.16;4970051;28;20034;-87
2023/08/15 04:49:45;;;;;;;18.55;7.50;;;;;;;26.38;60.81;100873.22;4971586;28;20031;-88
2023/08/15 04:52:10;;;;;;;24.80;8.02;;;;;;;26.48;60.42;100876.34;4970903;28;20162;-87
2023/08/15 04:54:36;;;;;;;29.40;8.23;;;;;;;26.49;60.67;100875.25;4971188;28;20117;-86
2023/08/15 04:57:02;;;;;;;26.77;7.10;;;;;;;26.64;59.86;100864.75;4971341;28;20475;-86
2023/08/15 04:59:27;;;;;;;27.60;7.45;;;;;;;26.77;59.31;100848.09;4969743;28;20481;-87
2023/08/15 05:01:52;;;;;;;20.42;7.00;;;;;;;26.92;59.13;100862.44;4971172;28;20138;-86
2023/08/15 05:04:18;;;;;;;15.73;7.35;;;;;;;27.04;59.08;100848.72;4971077;28;20105;-87
2023/08/15 05:06:43;;;;;;;28.02;7.93;;;;;;;27.17;58.26;100821.00;4971008;28;20026;-86
2023/08/15 05:09:09;;;;;;;21.55;7.38;;;;;;;27.26;58.60;100825.13;4969267;28;20142;-88
2023/08/15 05:11:34;;;;;;;17.63;7.90;;;;;;;27.39;58.27;100816.72;4971402;28;20031;-87
2023/08/15 05:14:00;;;;;;;19.55;7.00;;;;;;;27.35;57.90;100800.81;4974137;28;20074;-88
2023/08/15 05:16:26;;;;;;;18.08;6.88;;;;;;;27.47;58.59;100796.25;4976262;28;20041;-87
2023/08/15 05:18:51;;;;;;;17.50;7.43;;;;;;;27.53;57.59;100790.63;4978479;28;20026;-87
2023/08/15 05:21:16;;;;;;;14.77;7.30;;;;;;;27.51;57.02;100790.03;4978086;28;20499;-87
2023/08/15 05:23:42;;;;;;;18.33;7.28;;;;;;;27.66;57.41;100795.16;4979042;28;20054;-89
2023/08/15 05:26:07;;;;;;;22.63;8.23;;;;;;;27.78;56.88;100800.72;4988491;28;20034;-87
2023/08/15 05:28:33;;;;;;;18.45;8.02;;;;;;;27.92;55.97;100814.13;4974289;28;20034;-87
2023/08/15 05:30:58;;;;;;;15.32;7.72;;;;;;;28.09;55.11;100826.28;4973102;28;20023;-87
2023/08/15 05:33:24;;;;;;;19.23;7.35;;;;;;;28.02;55.53;100814.44;4972633;28;20019;-87
2023/08/15 05:35:49;;;;;;;14.32;7.13;;;;;;;28.02;55.76;100800.59;4975318;28;20039;-87
2023/08/15 05:38:15;;;;;;;24.10;8.88;;;;;;;28.19;56.07;100822.09;4979110;28;20062;-84
2023/08/15 05:40:40;;;;;;;19.48;7.50;;;;;;;28.29;56.04;100808.53;4973752;28;20027;-81
2023/08/15 05:43:05;;;;;;;17.33;7.65;;;;;;;28.31;56.24;100811.91;4973900;28;20041;-82
2023/08/15 05:45:32;;;;;;;18.90;7.55;;;;;;;28.37;55.97;100825.66;4973877;28;20126;-82
2023/08/15 05:47:58;;;;;;;15.30;7.00;;;;;;;28.41;56.13;100813.00;4974065;28;20026;-80
2023/08/15 05:50:24;;;;;;;14.68;6.15;;;;;;;28.41;54.95;100817.69;4973943;28;20049;-81
2023/08/15 05:52:50;;;;;;;17.17;6.72;;;;;;;28.47;55.26;100827.84;4974021;28;20081;-81
2023/08/15 05:55:15;;;;;;;24.38;7.78;;;;;;;28.50;55.17;100819.06;4979266;28;20033;-83
2023/08/15 05:57:41;;;;;;;13.90;7.47;;;;;;;28.55;54.12;100813.66;4991364;28;20054;-90
2023/08/15 06:00:10;;;;;;;23.48;7.95;;;;;;;28.66;54.39;100821.16;4994185;28;20019;-88
2023/08/15 06:02:38;;;;;;;14.93;7.10;;;;;;;28.68;53.64;100805.19;5003012;28;20042;-86
2023/08/15 06:05:04;;;;;;;18.10;7.47;;;;;;;28.66;52.66;100809.25;4991041;28;20023;-86
2023/08/15 06:07:30;;;;;;;29.90;7.63;;;;;;;28.66;52.05;100812.84;5007363;28;20023;-86
2023/08/15 06:09:55;;;;;;;21.63;6.97;;;;;;;28.54;51.88;100809.19;4986182;28;20112;-86
2023/08/15 06:12:20;;;;;;;25.23;8.20;;;;;;;28.62;52.12;100831.81;4977648;28;20027;-85
2023/08/15 06:14:46;;;;;;;19.88;7.18;;;;;;;28.54;52.10;100834.09;4975845;28;20062;-87
2023/08/15 06:17:14;;;;;;;26.08;8.05;;;;;;;28.58;52.11;100835.31;4975225;28;20665;-85
2023/08/15 06:19:40;;;;;;;25.55;8.50;;;;;;;28.57;52.08;100831.72;4974509;28;20418;-85
2023/08/15 06:22:05;;;;;;;22.05;6.65;;;;;;;28.59;52.19;100842.56;4974353;28;20046;-86
2023/08/15 06:24:31;;;;;;;17.63;7.32;;;;;;;28.69;51.81;100848.38;4974254;28;20058;-86
2023/08/15 06:26:56;;;;;;;19.55;6.97;;;;;;;28.71;52.34;100857.28;4974371;28;20030;-86
2023/08/15 06:29:22;;;;;;;18.42;7.00;;;;;;;28.69;52.09;100864.97;4974208;28;20082;-84
2023/08/15 06:31:47;;;;;;;23.17;7.88;;;;;;;28.66;52.43;100873.75;4975090;28;20038;-85
2023/08/15 06:34:13;;;;;;;24.40;7.55;;;;;;;28.62;52.55;100864.22;4974570;28;20487;-87
2023/08/15 06:36:39;;;;;;;15.80;7.53;;;;;;;28.76;52.22;100875.94;4974132;28;20475;-87
2023/08/15 06:39:05;;;;;;;20.55;7.50;;;;;;;28.72;52.00;100853.44;4973915;28;20498;-87
2023/08/15 06:41:31;;;;;;;19.88;7.35;;;;;;;28.85;51.89;100835.75;4973489;28;20430;-84
2023/08/15 06:43:56;;;;;;;20.27;7.28;;;;;;;28.78;51.95;100785.19;4972199;28;20031;-85
2023/08/15 06:46:22;;;;;;;31.88;8.25;;;;;;;28.73;51.77;100736.06;4972520;28;20019;-85
2023/08/15 06:48:48;;;;;;;29.65;8.38;;;;;;;28.58;52.33;100672.03;4974122;28;20105;-85
2023/08/15 06:51:13;;;;;;;42.13;9.45;;;;;;;28.26;52.63;100522.16;4974236;28;20117;-85
2023/08/15 06:53:41;;;;;;;96.38;13.82;;;;;;;28.13;54.63;100482.84;4973777;28;20031;-84
2023/08/15 06:56:09;;;;;;;64.05;11.75;;;;;;;28.02;56.38;100582.13;4973835;28;20057;-86
2023/08/15 06:58:35;;;;;;;25.25;9.10;;;;;;;27.82;56.49;100602.94;4975959;28;20035;-84
2023/08/15 07:01:01;;;;;;;36.05;7.88;;;;;;;27.87;56.93;100616.84;4975819;28;20106;-84
2023/08/15 07:03:26;;;;;;;38.38;8.95;;;;;;;27.89;56.52;100654.25;4978085;28;20030;-81
2023/08/15 07:05:52;;;;;;;27.65;8.10;;;;;;;28.02;52.96;100651.28;4978672;28;20031;-82
2023/08/15 07:08:18;;;;;;;43.28;8.77;;;;;;;28.11;52.67;100690.50;4980465;28;20034;-81
2023/08/15 07:10:44;;;;;;;51.30;13.25;;;;;;;28.39;52.27;100739.63;4974593;28;20113;-82
2023/08/15 07:13:09;;;;;;;16.98;7.85;;;;;;;28.57;51.86;100754.22;4973409;28;20031;-82
2023/08/15 07:15:35;;;;;;;25.80;8.35;;;;;;;28.71;50.88;100749.31;4974857;28;20398;-82
2023/08/15 07:18:01;;;;;;;34.47;8.27;;;;;;;28.78;50.60;100741.72;4975350;28;20038;-82
2023/08/15 07:20:26;;;;;;;39.20;14.30;;;;;;;28.87;50.58;100756.88;4977050;28;20844;-84
2023/08/15 07:22:53;;;;;;;17.50;7.57;;;;;;;28.87;50.06;100756.88;4972029;28;20081;-86
2023/08/15 07:25:19;;;;;;;62.95;14.85;;;;;;;28.93;50.56;100789.16;4973757;28;20105;-84
2023/08/15 07:27:44;;;;;;;28.00;8.90;;;;;;;28.93;51.00;100760.63;4974057;28;20433;-83
2023/08/15 07:30:13;;;;;;;29.85;8.50;;;;;;;29.06;50.27;100777.84;4974452;28;20542;-81
2023/08/15 07:32:39;;;;;;;35.80;9.10;;;;;;;29.06;50.08;100777.00;4974472;28;20027;-81
2023/08/15 07:35:06;;;;;;;19.65;8.88;;;;;;;29.14;50.06;100773.88;4973138;28;20041;-86
2023/08/15 07:37:32;;;;;;;39.10;9.07;;;;;;;29.20;49.36;100738.81;4972630;28;20027;-82
2023/08/15 07:40:09;;;;;;;26.67;9.40;;;;;;;28.98;50.08;100706.22;4987412;28;20041;-88
2023/08/15 07:42:35;;;;;;;27.15;8.20;;;;;;;29.20;49.58;100730.50;4974314;28;20038;-82
2023/08/15 07:45:02;;;;;;;23.30;8.27;;;;;;;29.20;49.63;100719.41;4972904;28;20042;-85
2023/08/15 07:47:28;;;;;;;16.17;8.05;;;;;;;29.36;49.56;100743.59;4971634;28;20114;-83
2023/08/15 07:50:18;;;;;;;18.05;7.85;;;;;;;29.33;49.50;100749.63;4971697;28;20117;-86
2023/08/15 07:52:44;;;;;;;27.50;8.77;;;;;;;29.21;48.98;100780.09;4971925;28;20058;-81
2023/08/15 07:55:09;;;;;;;35.95;10.88;;;;;;;29.37;49.09;100807.09;4970748;28;20419;-84
2023/08/15 07:57:35;;;;;;;25.40;7.55;;;;;;;29.36;49.04;100832.28;4952124;28;20166;-90
2023/08/15 08:00:02;;;;;;;86.85;14.13;;;;;;;29.33;49.28;100810.59;4952035;28;20027;-80
2023/08/15 08:02:27;;;;;;;32.22;8.55;;;;;;;29.37;49.24;100817.34;4967964;28;20031;-80
2023/08/15 08:04:53;;;;;;;29.48;8.77;;;;;;;29.36;49.60;100807.34;4971696;28;20041;-79
2023/08/15 08:07:18;;;;;;;25.30;8.65;;;;;;;29.40;49.04;100795.53;4969717;28;20034;-81
2023/08/15 08:09:43;;;;;;;27.38;7.80;;;;;;;29.32;48.94;100803.38;4972132;28;20038;-90
2023/08/15 08:12:09;;;;;;;28.15;8.82;;;;;;;29.41;48.87;100815.78;4971407;28;20034;-78
2023/08/15 08:14:35;;;;;;;20.88;7.63;;;;;;;29.46;48.88;100829.72;4971369;28;20481;-81
2023/08/15 08:17:00;;;;;;;22.45;7.63;;;;;;;29.58;48.82;100819.47;4972383;28;20038;-84
2023/08/15 08:19:26;;;;;;;21.15;7.80;;;;;;;29.68;48.62;100791.97;4970095;28;20038;-85
2023/08/15 08:21:51;;;;;;;17.30;7.55;;;;;;;29.85;48.46;100784.56;4971806;28;20058;-84
2023/08/15 08:24:17;;;;;;;24.38;8.07;;;;;;;30.03;48.26;100784.38;4973074;28;20113;-82
2023/08/15 08:26:42;;;;;;;27.95;8.50;;;;;;;30.09;47.44;100760.34;4973874;28;20122;-80
2023/08/15 08:29:08;;;;;;;60.88;11.20;;;;;;;29.98;47.17;100753.75;4973455;28;20437;-83
2023/08/15 08:31:33;;;;;;;21.45;7.75;;;;;;;29.97;47.62;100735.44;4973357;28;20023;-79
2023/08/15 08:33:59;;;;;;;39.97;8.27;;;;;;;29.88;47.86;100706.41;4976906;28;20035;-91
2023/08/15 08:36:24;;;;;;;24.35;8.18;;;;;;;29.78;48.33;100742.25;4974959;28;20402;-90
2023/08/15 08:38:50;;;;;;;18.20;7.55;;;;;;;29.74;48.72;100754.09;4970627;28;20502;-82
2023/08/15 08:41:15;;;;;;;27.17;7.47;;;;;;;29.72;48.84;100737.72;4971299;28;20108;-84
2023/08/15 08:43:42;;;;;;;25.80;8.23;;;;;;;29.58;49.53;100731.59;4970552;28;20054;-75
2023/08/15 08:46:08;;;;;;;37.03;7.80;;;;;;;29.41;49.92;100714.09;4970385;28;20030;-79
2023/08/15 08:48:35;;;;;;;23.85;8.10;;;;;;;29.53;49.87;100722.34;4970690;28;20479;-79
2023/08/15 08:51:01;;;;;;;23.38;6.85;;;;;;;29.56;49.36;100738.50;4970098;28;20117;-77
2023/08/15 08:53:27;;;;;;;22.42;7.57;;;;;;;29.68;49.31;100730.97;4970352;28;20023;-77
2023/08/15 08:55:52;;;;;;;21.98;8.18;;;;;;;29.81;49.23;100746.47;4970283;28;20062;-79
2023/08/15 08:58:18;;;;;;;34.08;7.88;;;;;;;29.81;48.74;100727.06;4970180;28;20134;-83
2023/08/15 09:00:44;;;;;;;24.98;7.47;;;;;;;29.99;49.04;100702.75;4970559;28;20069;-80
2023/08/15 09:03:10;;;;;;;16.73;8.20;;;;;;;30.20;48.66;100721.44;4969780;28;20078;-77
2023/08/15 09:05:36;;;;;;;21.83;7.72;;;;;;;30.29;48.08;100727.41;4968898;28;20420;-79
2023/08/15 09:08:02;;;;;;;28.63;7.93;;;;;;;30.33;47.77;100733.28;4970178;28;20045;-78
2023/08/15 09:10:28;;;;;;;37.33;8.75;;;;;;;30.46;47.48;100741.28;4970922;28;20038;-87
2023/08/15 09:13:00;;;;;;;16.30;7.50;;;;;;;30.37;47.96;100731.69;4981413;28;20027;-89
2023/08/15 09:15:25;;;;;;;28.45;7.72;;;;;;;30.53;47.88;100753.94;4977792;28;20054;-91
2023/08/15 09:17:59;;;;;;;25.25;7.97;;;;;;;30.55;48.31;100745.38;4973262;28;20031;-81
2023/08/15 09:20:25;;;;;;;20.13;7.18;;;;;;;30.65;48.02;100743.56;4969002;28;20062;-79
2023/08/15 09:22:51;;;;;;;30.40;7.90;;;;;;;30.61;48.21;100730.47;4970694;28;20034;-87
2023/08/15 09:25:20;;;;;;;25.58;8.18;;;;;;;30.69;48.25;100730.88;4970117;28;20030;-82
2023/08/15 09:27:46;;;;;;;16.50;7.07;;;;;;;30.64;48.08;100711.34;4970492;28;20019;-80
2023/08/15 09:30:19;;;;;;;24.20;7.93;;;;;;;30.84;48.42;100723.84;4969862;28;20039;-82
2023/08/15 09:32:45;;;;;;;37.20;10.40;;;;;;;30.94;48.43;100729.56;4970154;28;20019;-81
2023/08/15 09:35:17;;;;;;;35.55;10.27;;;;;;;31.15;47.34;100735.19;4969696;28;20035;-83
2023/08/15 09:37:46;;;;;;;20.67;8.10;;;;;;;31.24;47.75;100736.41;4969861;28;20026;-83
2023/08/15 09:40:15;;;;;;;24.60;7.95;;;;;;;31.21;47.51;100720.25;4969711;28;20046;-83
2023/08/15 09:42:41;;;;;;;22.48;8.43;;;;;;;31.16;47.52;100705.47;4969752;28;20174;-83
2023/08/15 09:45:08;;;;;;;16.73;7.80;;;;;;;30.90;47.94;100715.34;4985429;28;20604;-85
2023/08/15 09:47:36;;;;;;;26.08;8.63;;;;;;;30.95;48.20;100742.38;4970871;28;20506;-86
2023/08/15 09:50:03;;;;;;;20.35;6.95;;;;;;;30.92;48.43;100732.59;4970948;28;20033;-86
2023/08/15 09:52:29;;;;;;;25.17;9.35;;;;;;;31.07;48.21;100718.94;4971466;28;20030;-86
2023/08/15 09:54:55;;;;;;;14.88;7.38;;;;;;;31.12;48.13;100723.75;4970030;28;20548;-86
2023/08/15 09:57:21;;;;;;;33.50;8.55;;;;;;;31.23;47.70;100731.94;4970294;28;20615;-85
2023/08/15 09:59:46;;;;;;;35.53;8.27;;;;;;;31.39;47.67;100724.66;4970436;28;20098;-84
2023/08/15 10:02:22;;;;;;;16.23;7.75;;;;;;;31.48;47.54;100741.72;4969833;28;20114;-86
2023/08/15 10:05:00;;;;;;;26.40;8.93;;;;;;;31.33;47.60;100739.59;4970255;28;20062;-85
2023/08/15 10:07:30;;;;;;;26.48;10.70;;;;;;;31.34;47.72;100744.06;4970777;28;20058;-86
2023/08/15 10:09:57;;;;;;;26.55;8.45;;;;;;;31.43;47.47;100747.22;4970870;28;20026;-86
2023/08/15 10:12:24;;;;;;;17.20;7.70;;;;;;;31.54;47.49;100737.91;4970661;28;20027;-86
2023/08/15 10:14:52;;;;;;;21.88;7.55;;;;;;;31.58;47.22;100741.88;4971098;28;20031;-85
2023/08/15 10:17:18;;;;;;;31.48;7.97;;;;;;;31.45;47.40;100718.03;4970395;28;20023;-84
2023/08/15 10:19:48;;;;;;;17.98;6.97;;;;;;;31.49;47.49;100713.69;4970344;28;20047;-84
2023/08/15 10:22:20;;;;;;;25.30;8.05;;;;;;;31.34;47.02;100696.78;4972352;28;20046;-87
2023/08/15 10:24:46;;;;;;;25.08;7.68;;;;;;;31.11;47.45;100664.53;4976318;28;20505;-85
2023/08/15 10:27:15;;;;;;;33.75;7.75;;;;;;;31.18;47.61;100687.41;4960230;28;20031;-85
2023/08/15 10:29:53;;;;;;;22.38;7.60;;;;;;;31.31;47.78;100690.91;4975442;28;20023;-87
2023/08/15 10:32:26;;;;;;;20.10;7.78;;;;;;;31.40;47.16;100701.31;4975069;28;20031;-83
2023/08/15 10:34:53;;;;;;;20.80;8.20;;;;;;;31.63;46.98;100728.84;4973334;28;20033;-85
2023/08/15 10:37:36;;;;;;;20.05;7.40;;;;;;;31.89;46.65;100751.41;4974120;28;20037;-86
2023/08/15 10:40:13;;;;;;;30.30;9.80;;;;;;;32.11;45.98;100741.09;4974306;28;20097;-87
2023/08/15 10:43:10;;;;;;;25.65;8.60;;;;;;;32.21;45.41;100760.66;4974033;28;20054;-85
2023/08/15 10:45:50;;;;;;;31.63;7.47;;;;;;;32.37;45.13;100751.34;4988591;28;20398;-85
2023/08/15 10:48:34;;;;;;;26.48;7.22;;;;;;;32.38;45.07;100727.13;4973706;28;20041;-86
2023/08/15 10:51:00;;;;;;;19.10;7.85;;;;;;;32.13;45.54;100705.47;4973995;28;20033;-86
2023/08/15 10:53:25;;;;;;;31.17;9.77;;;;;;;32.15;44.97;100697.69;4973576;28;20031;-85
2023/08/15 10:55:54;;;;;;;40.97;9.60;;;;;;;31.98;46.31;100702.53;4973402;28;20576;-84
2023/08/15 10:58:21;;;;;;;19.35;9.45;;;;;;;32.16;45.96;100722.50;4974745;28;20030;-85
2023/08/15 11:00:51;;;;;;;25.55;8.05;;;;;;;32.46;45.42;100748.91;4973158;28;20031;-85
2023/08/15 11:03:16;;;;;;;23.83;8.20;;;;;;;32.59;44.94;100759.63;4975518;28;20178;-85
2023/08/15 11:05:42;;;;;;;26.77;9.68;;;;;;;32.57;44.64;100747.94;4975980;28;20194;-88
2023/08/15 11:08:10;;;;;;;31.83;9.27;;;;;;;32.67;44.36;100734.06;4993863;28;20031;-85
2023/08/15 11:10:36;;;;;;;27.13;9.50;;;;;;;32.68;44.53;100724.59;4973980;28;20061;-86
2023/08/15 11:13:01;;;;;;;29.00;9.43;;;;;;;32.42;44.12;100697.63;4973888;28;20145;-84
2023/08/15 11:15:27;;;;;;;20.52;9.65;;;;;;;32.25;44.70;100662.44;4973796;28;20455;-90